Decoded Metar for LFRC (CHERBOURG in FRANCE) (IATA:CER) | Meteo·Mobile Aviation Weather
aviador You're here:

LFRC Decoded Metar

CHERBOURG in FRANCE
Report Time2020-02-23 09:30:00
UTC Time2020-02-23 09:57:33
Flight Rules ifr IFR
Wind240° at 31 Gusting to 45 kt
W.Decomp.*RWY 28: 24.4 kt HW 19.1 kt LCW
Visibility3200 m
Phenomena:Light Drizzle
Mist
Clouds:Overcast 005 Hf
Expected CloudBase > 400 ft AGL from Temp-Dew spread
Ceiling500 ft
Temp11°C (ISA -3)
Dew Point10°C (94% RH)
AAT-0.1°C
QNH1020 hPa
Density Alt13 ft
Elevation453 ft
Report Wrong Elevation
Raw Report
LFRC 230930Z AUTO 24031G45KT 3200 -DZ BR OVC005 11/10 Q1020 TEMPO
2000 RADZ=

Extra information for LFRC:More info

Metar Taf Metar & Taf Last 4 Metars F.Rules Stats Wind Profile Meteogram Temp Stats Airport Information Weather charts Add Link Nearby VenuesMetar ALERT Operation Metar Decoded Social comments